sensor_id;sensor_type;location;lat;lon;timestamp;pressure;altitude;pressure_sealevel;temperature;humidity
50774;BME280;36745;48.544;8.918;2023-02-11T00:01:48;99352.84;;;-4.03;80.65
50774;BME280;36745;48.544;8.918;2023-02-11T00:05:08;99337.81;;;-3.91;80.58
50774;BME280;36745;48.544;8.918;2023-02-11T00:08:27;99345.91;;;-3.91;80.48
50774;BME280;36745;48.544;8.918;2023-02-11T00:11:47;99349.47;;;-3.95;80.46
50774;BME280;36745;48.544;8.918;2023-02-11T00:15:08;99354.72;;;-4.04;80.50
50774;BME280;36745;48.544;8.918;2023-02-11T00:18:27;99345.22;;;-4.15;80.85
50774;BME280;36745;48.544;8.918;2023-02-11T00:21:47;99345.44;;;-4.11;81.15
50774;BME280;36745;48.544;8.918;2023-02-11T00:25:07;99335.47;;;-4.11;80.74
50774;BME280;36745;48.544;8.918;2023-02-11T00:28:27;99343.31;;;-4.14;81.05
50774;BME280;36745;48.544;8.918;2023-02-11T00:31:47;99348.66;;;-4.28;81.31
50774;BME280;36745;48.544;8.918;2023-02-11T00:35:07;99347.16;;;-4.34;81.49
50774;BME280;36745;48.544;8.918;2023-02-11T00:38:27;99344.53;;;-4.39;81.80
50774;BME280;36745;48.544;8.918;2023-02-11T00:41:47;99347.50;;;-4.41;82.20
50774;BME280;36745;48.544;8.918;2023-02-11T00:45:07;99351.69;;;-4.48;82.02
50774;BME280;36745;48.544;8.918;2023-02-11T00:48:28;99345.19;;;-4.47;81.80
50774;BME280;36745;48.544;8.918;2023-02-11T00:51:48;99342.00;;;-4.49;82.11
50774;BME280;36745;48.544;8.918;2023-02-11T00:55:08;99336.94;;;-4.18;82.53
50774;BME280;36745;48.544;8.918;2023-02-11T00:58:28;99329.69;;;-4.04;82.03
50774;BME280;36745;48.544;8.918;2023-02-11T01:01:48;99332.69;;;-4.06;81.75
50774;BME280;36745;48.544;8.918;2023-02-11T01:05:07;99336.41;;;-4.20;82.00
50774;BME280;36745;48.544;8.918;2023-02-11T01:08:27;99332.94;;;-4.21;81.96
50774;BME280;36745;48.544;8.918;2023-02-11T01:11:47;99328.91;;;-4.37;82.12
50774;BME280;36745;48.544;8.918;2023-02-11T01:15:08;99333.59;;;-4.29;82.29
50774;BME280;36745;48.544;8.918;2023-02-11T01:18:28;99332.75;;;-4.43;82.16
50774;BME280;36745;48.544;8.918;2023-02-11T01:21:48;99322.22;;;-4.58;82.71
50774;BME280;36745;48.544;8.918;2023-02-11T01:25:08;99325.34;;;-4.51;82.82
50774;BME280;36745;48.544;8.918;2023-02-11T01:28:29;99316.63;;;-4.62;83.50
50774;BME280;36745;48.544;8.918;2023-02-11T01:31:49;99316.78;;;-4.53;83.14
50774;BME280;36745;48.544;8.918;2023-02-11T01:35:09;99312.31;;;-4.63;82.96
50774;BME280;36745;48.544;8.918;2023-02-11T01:38:29;99318.50;;;-4.62;83.58
50774;BME280;36745;48.544;8.918;2023-02-11T01:41:49;99311.09;;;-4.71;83.78
50774;BME280;36745;48.544;8.918;2023-02-11T01:49:14;99306.22;;;-4.69;83.76
50774;BME280;36745;48.544;8.918;2023-02-11T01:52:38;99291.19;;;-4.70;83.84
50774;BME280;36745;48.544;8.918;2023-02-11T01:55:59;99293.38;;;-4.72;84.17
50774;BME280;36745;48.544;8.918;2023-02-11T02:03:26;99279.75;;;-4.80;84.38
50774;BME280;36745;48.544;8.918;2023-02-11T02:06:55;99281.59;;;-4.76;84.96
50774;BME280;36745;48.544;8.918;2023-02-11T02:10:20;99274.09;;;-4.79;84.49
50774;BME280;36745;48.544;8.918;2023-02-11T02:13:41;99269.72;;;-4.75;84.54
50774;BME280;36745;48.544;8.918;2023-02-11T02:17:01;99268.50;;;-4.82;84.75
50774;BME280;36745;48.544;8.918;2023-02-11T02:31:25;99255.84;;;-4.82;84.82
50774;BME280;36745;48.544;8.918;2023-02-11T02:34:35;99257.66;;;-4.96;84.70
50774;BME280;36745;48.544;8.918;2023-02-11T02:38:02;99256.00;;;-4.92;85.53
50774;BME280;36745;48.544;8.918;2023-02-11T02:41:30;99252.66;;;-4.84;85.16
50774;BME280;36745;48.544;8.918;2023-02-11T02:44:51;99255.84;;;-4.82;85.31
50774;BME280;36745;48.544;8.918;2023-02-11T02:48:43;99260.47;;;-4.69;85.67
50774;BME280;36745;48.544;8.918;2023-02-11T02:52:31;99250.22;;;-4.67;85.66
50774;BME280;36745;48.544;8.918;2023-02-11T02:56:39;99231.03;;;-4.60;85.76
50774;BME280;36745;48.544;8.918;2023-02-11T03:00:16;99244.69;;;-4.56;85.86
50774;BME280;36745;48.544;8.918;2023-02-11T03:04:04;99238.22;;;-4.55;85.09
50774;BME280;36745;48.544;8.918;2023-02-11T03:07:39;99225.84;;;-4.56;85.17
50774;BME280;36745;48.544;8.918;2023-02-11T03:11:01;99234.81;;;-4.61;84.75
50774;BME280;36745;48.544;8.918;2023-02-11T03:14:23;99230.78;;;-4.63;84.84
50774;BME280;36745;48.544;8.918;2023-02-11T03:17:47;99225.59;;;-4.74;85.77
50774;BME280;36745;48.544;8.918;2023-02-11T03:21:09;99238.31;;;-4.79;85.47
50774;BME280;36745;48.544;8.918;2023-02-11T03:24:34;99236.50;;;-4.84;85.24
50774;BME280;36745;48.544;8.918;2023-02-11T03:28:04;99237.47;;;-4.93;85.97
50774;BME280;36745;48.544;8.918;2023-02-11T03:31:35;99232.91;;;-4.93;85.16
50774;BME280;36745;48.544;8.918;2023-02-11T03:34:58;99226.34;;;-4.87;86.36
50774;BME280;36745;48.544;8.918;2023-02-11T03:38:25;99226.38;;;-4.73;86.58
50774;BME280;36745;48.544;8.918;2023-02-11T03:41:47;99232.38;;;-4.76;86.65
50774;BME280;36745;48.544;8.918;2023-02-11T03:45:10;99230.94;;;-4.87;86.38
50774;BME280;36745;48.544;8.918;2023-02-11T03:48:39;99242.47;;;-4.87;86.40
50774;BME280;36745;48.544;8.918;2023-02-11T03:52:02;99242.63;;;-4.97;86.21
50774;BME280;36745;48.544;8.918;2023-02-11T03:55:24;99247.41;;;-4.94;86.07
50774;BME280;36745;48.544;8.918;2023-02-11T03:58:45;99256.16;;;-5.02;86.65
50774;BME280;36745;48.544;8.918;2023-02-11T04:02:06;99251.78;;;-4.98;86.34
50774;BME280;36745;48.544;8.918;2023-02-11T04:05:26;99237.75;;;-4.95;86.92
50774;BME280;36745;48.544;8.918;2023-02-11T04:08:46;99213.38;;;-4.85;87.11
50774;BME280;36745;48.544;8.918;2023-02-11T04:12:06;99226.25;;;-4.82;86.54
50774;BME280;36745;48.544;8.918;2023-02-11T04:15:26;99213.22;;;-4.75;86.81
50774;BME280;36745;48.544;8.918;2023-02-11T04:18:46;99220.19;;;-4.74;86.96
50774;BME280;36745;48.544;8.918;2023-02-11T04:22:06;99236.03;;;-4.86;87.06
50774;BME280;36745;48.544;8.918;2023-02-11T04:25:26;99235.34;;;-4.78;87.61
50774;BME280;36745;48.544;8.918;2023-02-11T04:28:46;99230.72;;;-4.58;87.88
50774;BME280;36745;48.544;8.918;2023-02-11T04:32:06;99235.94;;;-4.48;87.16
50774;BME280;36745;48.544;8.918;2023-02-11T04:35:26;99236.84;;;-4.39;87.74
50774;BME280;36745;48.544;8.918;2023-02-11T04:38:45;99242.25;;;-4.39;87.38
50774;BME280;36745;48.544;8.918;2023-02-11T04:42:05;99240.06;;;-4.37;87.90
50774;BME280;36745;48.544;8.918;2023-02-11T04:45:25;99243.06;;;-4.25;88.31
50774;BME280;36745;48.544;8.918;2023-02-11T04:48:45;99244.38;;;-4.09;88.53
50774;BME280;36745;48.544;8.918;2023-02-11T04:52:05;99252.69;;;-3.92;87.92
50774;BME280;36745;48.544;8.918;2023-02-11T04:55:24;99244.59;;;-3.92;88.14
50774;BME280;36745;48.544;8.918;2023-02-11T04:58:44;99243.72;;;-3.73;87.87
50774;BME280;36745;48.544;8.918;2023-02-11T05:02:04;99239.53;;;-3.79;88.35
50774;BME280;36745;48.544;8.918;2023-02-11T05:05:24;99228.44;;;-3.64;87.97
50774;BME280;36745;48.544;8.918;2023-02-11T05:08:44;99233.44;;;-3.58;88.03
50774;BME280;36745;48.544;8.918;2023-02-11T05:12:03;99224.03;;;-3.60;87.94
50774;BME280;36745;48.544;8.918;2023-02-11T05:15:23;99234.59;;;-3.50;88.36
50774;BME280;36745;48.544;8.918;2023-02-11T05:18:44;99227.53;;;-3.46;88.19
50774;BME280;36745;48.544;8.918;2023-02-11T05:22:03;99218.25;;;-3.40;88.56
50774;BME280;36745;48.544;8.918;2023-02-11T05:25:23;99223.38;;;-3.16;88.18
50774;BME280;36745;48.544;8.918;2023-02-11T05:28:43;99218.16;;;-3.13;88.56
50774;BME280;36745;48.544;8.918;2023-02-11T05:32:03;99215.84;;;-3.06;88.72
50774;BME280;36745;48.544;8.918;2023-02-11T05:35:23;99216.03;;;-3.02;88.55
50774;BME280;36745;48.544;8.918;2023-02-11T05:38:42;99210.59;;;-2.88;88.74
50774;BME280;36745;48.544;8.918;2023-02-11T05:42:02;99204.94;;;-2.78;88.67
50774;BME280;36745;48.544;8.918;2023-02-11T05:45:22;99182.75;;;-2.75;88.19
50774;BME280;36745;48.544;8.918;2023-02-11T05:48:42;99163.47;;;-2.60;87.99
50774;BME280;36745;48.544;8.918;2023-02-11T05:52:02;99171.72;;;-2.65;87.95
50774;BME280;36745;48.544;8.918;2023-02-11T05:55:22;99185.25;;;-2.57;88.33
50774;BME280;36745;48.544;8.918;2023-02-11T05:58:42;99190.22;;;-2.50;87.94
50774;BME280;36745;48.544;8.918;2023-02-11T06:02:01;99177.81;;;-2.51;87.96
50774;BME280;36745;48.544;8.918;2023-02-11T06:05:21;99148.25;;;-2.56;88.30
50774;BME280;36745;48.544;8.918;2023-02-11T06:08:41;99151.00;;;-2.47;87.77
50774;BME280;36745;48.544;8.918;2023-02-11T06:12:01;99151.59;;;-2.59;88.59
50774;BME280;36745;48.544;8.918;2023-02-11T06:15:21;99140.03;;;-2.51;89.34
50774;BME280;36745;48.544;8.918;2023-02-11T06:18:41;99150.41;;;-2.36;89.14
50774;BME280;36745;48.544;8.918;2023-02-11T06:22:01;99156.19;;;-2.29;88.89
50774;BME280;36745;48.544;8.918;2023-02-11T06:25:20;99161.72;;;-2.34;89.13
50774;BME280;36745;48.544;8.918;2023-02-11T06:28:40;99178.63;;;-2.20;89.09
50774;BME280;36745;48.544;8.918;2023-02-11T06:32:00;99192.19;;;-2.11;89.30
50774;BME280;36745;48.544;8.918;2023-02-11T06:35:20;99196.63;;;-2.06;89.75
50774;BME280;36745;48.544;8.918;2023-02-11T06:38:40;99188.41;;;-1.93;89.85
50774;BME280;36745;48.544;8.918;2023-02-11T06:42:00;99202.13;;;-1.81;89.78
50774;BME280;36745;48.544;8.918;2023-02-11T06:45:19;99198.63;;;-1.81;89.52
50774;BME280;36745;48.544;8.918;2023-02-11T06:48:39;99198.34;;;-1.80;89.72
50774;BME280;36745;48.544;8.918;2023-02-11T06:51:59;99202.94;;;-1.72;89.91
50774;BME280;36745;48.544;8.918;2023-02-11T06:55:19;99198.19;;;-1.66;89.52
50774;BME280;36745;48.544;8.918;2023-02-11T06:58:39;99199.78;;;-1.65;89.81
50774;BME280;36745;48.544;8.918;2023-02-11T07:01:58;99198.06;;;-1.61;89.55
50774;BME280;36745;48.544;8.918;2023-02-11T07:05:19;99197.75;;;-1.51;89.50
50774;BME280;36745;48.544;8.918;2023-02-11T07:08:39;99189.47;;;-1.54;89.67
50774;BME280;36745;48.544;8.918;2023-02-11T07:12:00;99187.78;;;-1.42;89.81
50774;BME280;36745;48.544;8.918;2023-02-11T07:15:20;99197.63;;;-1.37;88.87
50774;BME280;36745;48.544;8.918;2023-02-11T07:18:40;99207.16;;;-1.40;88.78
50774;BME280;36745;48.544;8.918;2023-02-11T07:22:00;99216.41;;;-1.41;89.35
50774;BME280;36745;48.544;8.918;2023-02-11T07:25:20;99207.66;;;-1.38;89.77
50774;BME280;36745;48.544;8.918;2023-02-11T07:28:40;99228.84;;;-1.22;89.64
50774;BME280;36745;48.544;8.918;2023-02-11T07:32:00;99220.25;;;-1.16;89.73
50774;BME280;36745;48.544;8.918;2023-02-11T07:35:20;99217.25;;;-1.14;89.65
50774;BME280;36745;48.544;8.918;2023-02-11T07:38:40;99207.22;;;-1.05;90.17
50774;BME280;36745;48.544;8.918;2023-02-11T07:41:59;99202.44;;;-0.91;89.82
50774;BME280;36745;48.544;8.918;2023-02-11T07:45:19;99202.44;;;-0.91;89.77
50774;BME280;36745;48.544;8.918;2023-02-11T07:48:39;99194.16;;;-0.86;89.94
50774;BME280;36745;48.544;8.918;2023-02-11T07:51:59;99199.56;;;-0.69;89.56
50774;BME280;36745;48.544;8.918;2023-02-11T07:55:19;99207.84;;;-0.57;89.60
50774;BME280;36745;48.544;8.918;2023-02-11T07:58:39;99230.75;;;-0.46;89.21
50774;BME280;36745;48.544;8.918;2023-02-11T08:02:00;99231.72;;;-0.42;89.26
50774;BME280;36745;48.544;8.918;2023-02-11T08:05:20;99234.06;;;-0.31;89.38
50774;BME280;36745;48.544;8.918;2023-02-11T08:08:40;99231.03;;;-0.21;89.53
50774;BME280;36745;48.544;8.918;2023-02-11T08:12:00;99221.16;;;-0.17;88.83
50774;BME280;36745;48.544;8.918;2023-02-11T08:15:20;99221.84;;;0.09;89.34
50774;BME280;36745;48.544;8.918;2023-02-11T08:18:40;99213.72;;;0.09;87.67
50774;BME280;36745;48.544;8.918;2023-02-11T08:21:59;99209.72;;;0.15;87.45
50774;BME280;36745;48.544;8.918;2023-02-11T08:25:19;99198.19;;;0.18;86.83
50774;BME280;36745;48.544;8.918;2023-02-11T08:28:41;99192.59;;;0.23;85.82
50774;BME280;36745;48.544;8.918;2023-02-11T08:32:02;99190.06;;;0.18;86.35
50774;BME280;36745;48.544;8.918;2023-02-11T08:35:22;99195.63;;;0.22;85.65
50774;BME280;36745;48.544;8.918;2023-02-11T08:38:42;99191.78;;;0.23;85.09
50774;BME280;36745;48.544;8.918;2023-02-11T08:42:02;99193.00;;;0.34;85.46
50774;BME280;36745;48.544;8.918;2023-02-11T08:45:22;99194.09;;;0.41;85.15
50774;BME280;36745;48.544;8.918;2023-02-11T08:48:42;99204.06;;;0.58;86.09
50774;BME280;36745;48.544;8.918;2023-02-11T08:52:02;99203.31;;;0.99;86.24
50774;BME280;36745;48.544;8.918;2023-02-11T08:55:22;99197.31;;;1.26;85.40
50774;BME280;36745;48.544;8.918;2023-02-11T08:58:42;99197.78;;;1.29;84.34
50774;BME280;36745;48.544;8.918;2023-02-11T09:02:02;99200.84;;;1.60;85.89
50774;BME280;36745;48.544;8.918;2023-02-11T09:05:22;99199.97;;;1.68;84.63
50774;BME280;36745;48.544;8.918;2023-02-11T09:08:43;99194.81;;;1.87;83.48
50774;BME280;36745;48.544;8.918;2023-02-11T09:12:03;99195.00;;;1.70;83.83
50774;BME280;36745;48.544;8.918;2023-02-11T09:15:23;99191.88;;;1.92;84.58
50774;BME280;36745;48.544;8.918;2023-02-11T09:18:42;99192.34;;;2.06;83.19
50774;BME280;36745;48.544;8.918;2023-02-11T09:22:04;99187.09;;;1.89;82.71
50774;BME280;36745;48.544;8.918;2023-02-11T09:25:24;99189.38;;;1.87;83.08
50774;BME280;36745;48.544;8.918;2023-02-11T09:28:45;99177.09;;;1.69;81.44
50774;BME280;36745;48.544;8.918;2023-02-11T09:32:05;99178.56;;;1.66;82.35
50774;BME280;36745;48.544;8.918;2023-02-11T09:35:24;99185.72;;;1.71;81.99
50774;BME280;36745;48.544;8.918;2023-02-11T09:38:45;99181.09;;;1.96;82.46
50774;BME280;36745;48.544;8.918;2023-02-11T09:42:19;99181.94;;;2.21;82.08
50774;BME280;36745;48.544;8.918;2023-02-11T09:45:44;99194.38;;;2.34;81.81
50774;BME280;36745;48.544;8.918;2023-02-11T09:49:05;99199.41;;;2.32;81.02
50774;BME280;36745;48.544;8.918;2023-02-11T09:52:43;99192.13;;;2.36;81.85
50774;BME280;36745;48.544;8.918;2023-02-11T09:56:11;99180.31;;;2.56;80.82
50774;BME280;36745;48.544;8.918;2023-02-11T09:59:31;99177.69;;;2.72;81.91
50774;BME280;36745;48.544;8.918;2023-02-11T10:13:56;99175.53;;;3.45;79.88
50774;BME280;36745;48.544;8.918;2023-02-11T10:17:45;99173.38;;;3.51;79.73
50774;BME280;36745;48.544;8.918;2023-02-11T10:24:33;99180.53;;;3.87;79.05
50774;BME280;36745;48.544;8.918;2023-02-11T10:27:56;99176.16;;;3.98;78.81
50774;BME280;36745;48.544;8.918;2023-02-11T10:31:22;99171.50;;;3.98;78.79
50774;BME280;36745;48.544;8.918;2023-02-11T10:38:51;99166.44;;;4.16;77.62
50774;BME280;36745;48.544;8.918;2023-02-11T10:42:11;99161.91;;;4.20;77.36
50774;BME280;36745;48.544;8.918;2023-02-11T10:45:38;99163.28;;;4.45;78.03
50774;BME280;36745;48.544;8.918;2023-02-11T10:49:00;99151.63;;;4.48;76.35
50774;BME280;36745;48.544;8.918;2023-02-11T10:52:26;99156.56;;;4.58;76.59
50774;BME280;36745;48.544;8.918;2023-02-11T10:55:53;99151.16;;;4.62;76.23
50774;BME280;36745;48.544;8.918;2023-02-11T11:02:36;99139.84;;;4.79;76.34
50774;BME280;36745;48.544;8.918;2023-02-11T11:06:08;99134.50;;;4.86;75.88
50774;BME280;36745;48.544;8.918;2023-02-11T11:09:29;99126.53;;;4.97;75.07
50774;BME280;36745;48.544;8.918;2023-02-11T11:12:49;99123.16;;;5.03;75.33
50774;BME280;36745;48.544;8.918;2023-02-11T11:19:32;99098.69;;;5.30;74.76
50774;BME280;36745;48.544;8.918;2023-02-11T11:23:27;99104.44;;;5.44;75.30
50774;BME280;36745;48.544;8.918;2023-02-11T11:26:54;99102.66;;;5.32;73.15
50774;BME280;36745;48.544;8.918;2023-02-11T11:30:15;99102.50;;;5.25;73.97
50774;BME280;36745;48.544;8.918;2023-02-11T11:33:35;99105.53;;;5.39;73.85
50774;BME280;36745;48.544;8.918;2023-02-11T11:36:56;99102.59;;;5.52;73.43
50774;BME280;36745;48.544;8.918;2023-02-11T11:43:53;99105.22;;;5.44;72.56
50774;BME280;36745;48.544;8.918;2023-02-11T11:47:21;99101.28;;;5.65;73.63
50774;BME280;36745;48.544;8.918;2023-02-11T11:50:46;99097.91;;;6.73;74.40
50774;BME280;36745;48.544;8.918;2023-02-11T11:54:11;99095.84;;;8.62;75.54
50774;BME280;36745;48.544;8.918;2023-02-11T11:57:35;99087.59;;;9.69;73.03
50774;BME280;36745;48.544;8.918;2023-02-11T12:01:09;99088.44;;;10.20;70.46
50774;BME280;36745;48.544;8.918;2023-02-11T12:04:49;99078.66;;;11.30;70.64
50774;BME280;36745;48.544;8.918;2023-02-11T12:08:25;99081.50;;;11.86;68.17
50774;BME280;36745;48.544;8.918;2023-02-11T12:23:10;99070.22;;;12.55;61.77
50774;BME280;36745;48.544;8.918;2023-02-11T12:26:44;99069.53;;;12.81;60.66
50774;BME280;36745;48.544;8.918;2023-02-11T12:34:04;99073.22;;;13.05;58.24
50774;BME280;36745;48.544;8.918;2023-02-11T12:44:37;99059.13;;;12.92;55.55
50774;BME280;36745;48.544;8.918;2023-02-11T12:55:55;99051.63;;;13.80;54.00
50774;BME280;36745;48.544;8.918;2023-02-11T12:59:50;99052.75;;;13.56;51.42
50774;BME280;36745;48.544;8.918;2023-02-11T13:03:19;99047.13;;;13.63;50.91
50774;BME280;36745;48.544;8.918;2023-02-11T13:06:45;99042.09;;;13.81;51.93
50774;BME280;36745;48.544;8.918;2023-02-11T13:13:45;99046.56;;;13.99;50.41
50774;BME280;36745;48.544;8.918;2023-02-11T13:17:14;99051.03;;;13.66;49.55
50774;BME280;36745;48.544;8.918;2023-02-11T13:20:47;99040.56;;;13.50;49.51
50774;BME280;36745;48.544;8.918;2023-02-11T13:24:17;99025.69;;;13.67;49.25
50774;BME280;36745;48.544;8.918;2023-02-11T13:27:58;99027.56;;;13.47;48.45
50774;BME280;36745;48.544;8.918;2023-02-11T13:31:21;99030.19;;;13.31;48.83
50774;BME280;36745;48.544;8.918;2023-02-11T13:38:17;99026.22;;;12.98;48.48
50774;BME280;36745;48.544;8.918;2023-02-11T13:41:40;99025.03;;;12.99;48.43
50774;BME280;36745;48.544;8.918;2023-02-11T13:45:00;99019.59;;;12.92;48.39
50774;BME280;36745;48.544;8.918;2023-02-11T13:48:24;99021.59;;;12.57;48.27
50774;BME280;36745;48.544;8.918;2023-02-11T13:51:44;99017.06;;;12.37;48.65
50774;BME280;36745;48.544;8.918;2023-02-11T13:58:34;99020.00;;;11.71;48.54
50774;BME280;36745;48.544;8.918;2023-02-11T14:05:36;99030.78;;;10.78;48.90
50774;BME280;36745;48.544;8.918;2023-02-11T14:12:35;99030.91;;;10.46;50.73
50774;BME280;36745;48.544;8.918;2023-02-11T14:19:41;99015.94;;;10.40;51.13
50774;BME280;36745;48.544;8.918;2023-02-11T14:23:04;99006.50;;;10.27;51.46
50774;BME280;36745;48.544;8.918;2023-02-11T14:26:34;99010.44;;;10.05;51.24
50774;BME280;36745;48.544;8.918;2023-02-11T14:30:07;99011.66;;;9.90;51.60
50774;BME280;36745;48.544;8.918;2023-02-11T14:41:00;99006.09;;;9.19;52.13
50774;BME280;36745;48.544;8.918;2023-02-11T14:44:26;99009.63;;;9.16;52.62
50774;BME280;36745;48.544;8.918;2023-02-11T14:48:02;99017.03;;;8.94;52.57
50774;BME280;36745;48.544;8.918;2023-02-11T14:51:30;99021.38;;;8.95;53.08
50774;BME280;36745;48.544;8.918;2023-02-11T14:54:51;99018.19;;;8.93;53.20
50774;BME280;36745;48.544;8.918;2023-02-11T14:58:24;99010.31;;;8.84;52.89
50774;BME280;36745;48.544;8.918;2023-02-11T15:01:50;99014.16;;;8.69;53.17
50774;BME280;36745;48.544;8.918;2023-02-11T15:05:19;99011.00;;;8.60;53.09
50774;BME280;36745;48.544;8.918;2023-02-11T15:08:43;99015.69;;;8.56;53.35
50774;BME280;36745;48.544;8.918;2023-02-11T15:12:04;99018.81;;;8.51;53.84
50774;BME280;36745;48.544;8.918;2023-02-11T15:15:46;99032.94;;;8.53;54.12
50774;BME280;36745;48.544;8.918;2023-02-11T15:19:25;99041.22;;;8.57;53.69
50774;BME280;36745;48.544;8.918;2023-02-11T15:22:50;99046.31;;;8.55;53.70
50774;BME280;36745;48.544;8.918;2023-02-11T15:29:59;99040.72;;;8.37;54.18
50774;BME280;36745;48.544;8.918;2023-02-11T15:33:21;99041.91;;;8.36;54.25
50774;BME280;36745;48.544;8.918;2023-02-11T15:36:43;99046.97;;;8.34;54.99
50774;BME280;36745;48.544;8.918;2023-02-11T15:40:19;99055.50;;;8.18;55.11
50774;BME280;36745;48.544;8.918;2023-02-11T15:43:47;99056.16;;;8.01;55.63
50774;BME280;36745;48.544;8.918;2023-02-11T15:47:12;99053.75;;;7.96;56.02
50774;BME280;36745;48.544;8.918;2023-02-11T15:50:37;99047.41;;;7.88;56.41
50774;BME280;36745;48.544;8.918;2023-02-11T15:54:01;99052.78;;;7.74;56.29
50774;BME280;36745;48.544;8.918;2023-02-11T15:57:22;99058.94;;;7.61;57.27
50774;BME280;36745;48.544;8.918;2023-02-11T16:00:50;99057.75;;;7.62;57.38
50774;BME280;36745;48.544;8.918;2023-02-11T16:04:31;99065.06;;;7.47;57.31
50774;BME280;36745;48.544;8.918;2023-02-11T16:07:51;99057.97;;;7.39;57.62
50774;BME280;36745;48.544;8.918;2023-02-11T16:11:25;99068.28;;;7.15;59.02
50774;BME280;36745;48.544;8.918;2023-02-11T16:14:45;99065.44;;;7.08;58.38
50774;BME280;36745;48.544;8.918;2023-02-11T16:18:25;99065.84;;;6.77;58.68
50774;BME280;36745;48.544;8.918;2023-02-11T16:21:47;99068.53;;;6.44;59.20
50774;BME280;36745;48.544;8.918;2023-02-11T16:25:17;99076.66;;;6.10;59.40
50774;BME280;36745;48.544;8.918;2023-02-11T16:28:38;99085.69;;;5.88;60.41
50774;BME280;36745;48.544;8.918;2023-02-11T16:32:14;99079.84;;;5.67;61.47
50774;BME280;36745;48.544;8.918;2023-02-11T16:35:34;99089.19;;;5.66;60.20
50774;BME280;36745;48.544;8.918;2023-02-11T16:38:55;99102.59;;;5.52;60.33
50774;BME280;36745;48.544;8.918;2023-02-11T16:42:15;99097.03;;;5.25;62.01
50774;BME280;36745;48.544;8.918;2023-02-11T16:45:38;99106.84;;;5.07;62.10
50774;BME280;36745;48.544;8.918;2023-02-11T16:49:07;99117.47;;;4.93;61.81
50774;BME280;36745;48.544;8.918;2023-02-11T16:52:28;99129.63;;;4.76;62.81
50774;BME280;36745;48.544;8.918;2023-02-11T16:55:51;99140.47;;;4.73;63.52
50774;BME280;36745;48.544;8.918;2023-02-11T16:59:11;99142.06;;;4.93;64.53
50774;BME280;36745;48.544;8.918;2023-02-11T17:02:33;99148.56;;;4.85;64.43
50774;BME280;36745;48.544;8.918;2023-02-11T17:05:53;99150.69;;;4.76;64.90
50774;BME280;36745;48.544;8.918;2023-02-11T17:09:21;99149.97;;;4.79;65.49
50774;BME280;36745;48.544;8.918;2023-02-11T17:12:42;99157.09;;;4.83;64.19
50774;BME280;36745;48.544;8.918;2023-02-11T17:16:02;99157.44;;;4.62;64.89
50774;BME280;36745;48.544;8.918;2023-02-11T17:19:22;99164.31;;;4.56;65.07
50774;BME280;36745;48.544;8.918;2023-02-11T17:22:41;99178.41;;;4.43;65.02
50774;BME280;36745;48.544;8.918;2023-02-11T17:26:01;99170.88;;;4.36;65.63
50774;BME280;36745;48.544;8.918;2023-02-11T17:29:23;99178.44;;;4.27;65.65
50774;BME280;36745;48.544;8.918;2023-02-11T17:32:43;99170.88;;;4.05;66.03
50774;BME280;36745;48.544;8.918;2023-02-11T17:36:07;99181.94;;;3.80;66.35
50774;BME280;36745;48.544;8.918;2023-02-11T17:39:27;99176.47;;;3.80;66.45
50774;BME280;36745;48.544;8.918;2023-02-11T17:42:47;99175.59;;;3.76;66.69
50774;BME280;36745;48.544;8.918;2023-02-11T17:46:07;99174.19;;;3.67;66.76
50774;BME280;36745;48.544;8.918;2023-02-11T17:49:28;99180.50;;;3.55;67.38
50774;BME280;36745;48.544;8.918;2023-02-11T17:52:48;99176.31;;;3.46;67.90
50774;BME280;36745;48.544;8.918;2023-02-11T17:56:08;99178.94;;;3.42;67.90
50774;BME280;36745;48.544;8.918;2023-02-11T17:59:28;99179.50;;;3.20;68.73
50774;BME280;36745;48.544;8.918;2023-02-11T18:02:54;99193.03;;;3.16;69.32
50774;BME280;36745;48.544;8.918;2023-02-11T18:06:13;99191.09;;;3.17;69.42
50774;BME280;36745;48.544;8.918;2023-02-11T18:09:37;99197.22;;;3.14;69.59
50774;BME280;36745;48.544;8.918;2023-02-11T18:12:57;99192.97;;;3.01;69.99
50774;BME280;36745;48.544;8.918;2023-02-11T18:16:17;99205.69;;;2.97;70.19
50774;BME280;36745;48.544;8.918;2023-02-11T18:19:36;99208.06;;;2.98;70.87
50774;BME280;36745;48.544;8.918;2023-02-11T18:22:56;99211.31;;;3.16;70.51
50774;BME280;36745;48.544;8.918;2023-02-11T18:26:18;99211.75;;;3.18;71.36
50774;BME280;36745;48.544;8.918;2023-02-11T18:29:38;99210.56;;;3.31;71.50
50774;BME280;36745;48.544;8.918;2023-02-11T18:32:58;99208.19;;;3.29;71.18
50774;BME280;36745;48.544;8.918;2023-02-11T18:36:19;99218.75;;;3.31;71.41
50774;BME280;36745;48.544;8.918;2023-02-11T18:39:42;99220.84;;;3.22;71.75
50774;BME280;36745;48.544;8.918;2023-02-11T18:43:02;99227.38;;;3.33;71.77
50774;BME280;36745;48.544;8.918;2023-02-11T18:46:22;99229.16;;;3.41;71.39
50774;BME280;36745;48.544;8.918;2023-02-11T18:49:42;99236.00;;;3.35;71.90
50774;BME280;36745;48.544;8.918;2023-02-11T18:53:01;99224.19;;;3.31;72.15
50774;BME280;36745;48.544;8.918;2023-02-11T18:56:22;99230.09;;;3.33;72.22
50774;BME280;36745;48.544;8.918;2023-02-11T18:59:43;99238.72;;;3.35;72.80
50774;BME280;36745;48.544;8.918;2023-02-11T19:03:03;99237.81;;;3.31;72.83
50774;BME280;36745;48.544;8.918;2023-02-11T19:06:25;99240.22;;;3.32;73.26
50774;BME280;36745;48.544;8.918;2023-02-11T19:09:45;99226.69;;;3.36;73.69
50774;BME280;36745;48.544;8.918;2023-02-11T19:13:05;99239.38;;;3.44;73.58
50774;BME280;36745;48.544;8.918;2023-02-11T19:16:24;99239.81;;;3.46;73.75
50774;BME280;36745;48.544;8.918;2023-02-11T19:19:44;99243.47;;;3.50;74.33
50774;BME280;36745;48.544;8.918;2023-02-11T19:23:05;99235.91;;;3.59;73.68
50774;BME280;36745;48.544;8.918;2023-02-11T19:26:27;99233.44;;;3.54;73.46
50774;BME280;36745;48.544;8.918;2023-02-11T19:29:47;99234.72;;;3.45;74.77
50774;BME280;36745;48.544;8.918;2023-02-11T19:33:12;99229.38;;;3.48;74.18
50774;BME280;36745;48.544;8.918;2023-02-11T19:36:35;99224.63;;;3.45;74.58
50774;BME280;36745;48.544;8.918;2023-02-11T19:39:55;99226.31;;;3.50;75.29
50774;BME280;36745;48.544;8.918;2023-02-11T19:43:15;99225.22;;;3.66;74.82
50774;BME280;36745;48.544;8.918;2023-02-11T19:46:37;99222.03;;;3.64;74.52
50774;BME280;36745;48.544;8.918;2023-02-11T19:49:57;99216.38;;;3.57;75.36
50774;BME280;36745;48.544;8.918;2023-02-11T19:53:16;99214.69;;;3.53;75.51